Airville, Pennsylvania
Current Conditions -  °F | °C
As of 7:53 PM on Wednesday 22 Oct 2014 (Local Time) from KLNS Reporting Station
Overcast Overcast  
Wind Chill: 53°   Ceiling: 2700
Heat Index: 53°   Visibility: 10mi
Dew Point: 44°   Wind: 14mph
Humidity: 71%   Direction: 340°NNW
Pressure: 29.93"   Gusts: NA
Location:  39.83°N, 76.41°W
Report Text: KLNS 222353Z 34012KT 10SM OVC027 12/07 A2993 RMK AO2 SLP135 T01170067 10128 20117 53004
Loading
Personal Weather Stations






























Interactive Weather Map
Tropical Storm Tracking
New forecast layout! Learn more

10-Day Weather Forecast

Advertisements
Track Severe Weather on mobile